Aérodrome :
LOGIN :

S'inscrire | Disclaimer

   EN    FR    IT 

 










Légende :    VFR   VFR Marginal   IFR   IFR Intensif   IFR Très Intensif
Visi : 
Plafond : 
>= 8 km
>= 3000ft
5 à 8 km
1000 à 3000 ft
1500m à 5 km
500 à 1000 ft
800 à 1500m
200 à 500 ft
< 800m
< 200 ft
Symboles :   Orages  Brouillard  Fortes neiges  Fortes précipitations  Vent > 20 kt
SIGMETs :   Divers  Orages  Givrage  Turbulence  Onde Orograph.  Cendres Volcan.







- Altitude de l'aérodrome : 124 ft
- Code IATA : NHT
- Voir les cartes d'approche


EGWU - RAF Northolt

DERNIER METAR :
  • 181250Z 28007KT 9999 SCT032 BKN250 11/03 Q1020 NOSIG

METARs EXPIRÉS :
  • 181150Z 31008KT 9999 SCT031 BKN250 10/03 Q1021 BLU NOSIG
  • 181050Z 32010KT 9999 SCT026 BKN250 09/03 Q1021 NOSIG

TAF TAF EGWU
Valide du 18 à 12h jusqu'au 19 à 06h UTC


181022Z 1812/1906 29008KT 9999 SCT028
PROB30
TEMPO 1812/1818 7000 SHRA BKN024
PROB40 1900/1906 6000 BR
PROB30
TEMPO 1900/1903 SCT008
PROB30
TEMPO 1903/1906 3000 SCT003
Pas de NOTAMs connus pour ce terrain.



MET'MAP, la Météo Aéronautique d'un coup d'oeil ! - Copyright ORBIFLY Décembre 2007 - Disclaimer

ORBIFLY MET'MAP TEAM :

Programmation & Développement : Alexandra Zaïnal
Conception & Développement : Baudouin d'Aumeries
Co-Programmation & Développement : Marc-Olivier Méhu
Soutien technique & logistique : Manuel Goepfert

Contact : metmap@orbifly.com




SOURCES & CREDITS :

   NOAA